sensor_id;sensor_type;location;lat;lon;timestamp;temperature;humidity
7784;DHT22;19359;51.402;6.778;2024-02-26T00:01:31;6.60;1.00
7784;DHT22;19359;51.402;6.778;2024-02-26T00:03:59;6.70;1.00
7784;DHT22;19359;51.402;6.778;2024-02-26T00:06:27;6.60;1.00
7784;DHT22;19359;51.402;6.778;2024-02-26T00:08:54;6.60;1.00
7784;DHT22;19359;51.402;6.778;2024-02-26T00:11:21;6.60;1.00
7784;DHT22;19359;51.402;6.778;2024-02-26T00:13:47;6.60;1.00
7784;DHT22;19359;51.402;6.778;2024-02-26T00:16:14;6.50;1.00
7784;DHT22;19359;51.402;6.778;2024-02-26T00:18:42;6.50;1.00
7784;DHT22;19359;51.402;6.778;2024-02-26T00:21:09;6.50;1.00
7784;DHT22;19359;51.402;6.778;2024-02-26T00:23:36;6.50;1.00
7784;DHT22;19359;51.402;6.778;2024-02-26T00:26:03;6.50;1.00
7784;DHT22;19359;51.402;6.778;2024-02-26T00:28:29;6.50;1.00
7784;DHT22;19359;51.402;6.778;2024-02-26T00:30:56;6.50;1.00
7784;DHT22;19359;51.402;6.778;2024-02-26T00:33:23;6.50;1.00
7784;DHT22;19359;51.402;6.778;2024-02-26T00:35:51;6.50;1.00
7784;DHT22;19359;51.402;6.778;2024-02-26T00:38:18;6.50;1.00
7784;DHT22;19359;51.402;6.778;2024-02-26T00:40:44;6.50;1.00
7784;DHT22;19359;51.402;6.778;2024-02-26T00:43:11;6.50;1.00
7784;DHT22;19359;51.402;6.778;2024-02-26T00:45:38;6.50;1.00
7784;DHT22;19359;51.402;6.778;2024-02-26T00:48:05;6.50;1.00
7784;DHT22;19359;51.402;6.778;2024-02-26T00:50:33;6.50;1.00
7784;DHT22;19359;51.402;6.778;2024-02-26T00:53:01;6.50;1.00
7784;DHT22;19359;51.402;6.778;2024-02-26T00:55:28;6.50;1.00
7784;DHT22;19359;51.402;6.778;2024-02-26T00:57:55;6.50;1.00
7784;DHT22;19359;51.402;6.778;2024-02-26T01:00:21;6.50;1.00
7784;DHT22;19359;51.402;6.778;2024-02-26T01:05:15;6.50;1.00
7784;DHT22;19359;51.402;6.778;2024-02-26T01:07:43;6.50;1.00
7784;DHT22;19359;51.402;6.778;2024-02-26T01:10:11;6.50;1.00
7784;DHT22;19359;51.402;6.778;2024-02-26T01:12:38;6.60;1.00
7784;DHT22;19359;51.402;6.778;2024-02-26T01:15:05;6.50;1.00
7784;DHT22;19359;51.402;6.778;2024-02-26T01:17:32;6.50;1.00
7784;DHT22;19359;51.402;6.778;2024-02-26T01:19:59;6.60;1.00
7784;DHT22;19359;51.402;6.778;2024-02-26T01:22:26;6.50;1.00
7784;DHT22;19359;51.402;6.778;2024-02-26T01:24:52;6.50;1.00
7784;DHT22;19359;51.402;6.778;2024-02-26T01:27:20;6.50;1.00
7784;DHT22;19359;51.402;6.778;2024-02-26T01:29:52;6.50;1.00
7784;DHT22;19359;51.402;6.778;2024-02-26T01:32:18;6.40;1.00
7784;DHT22;19359;51.402;6.778;2024-02-26T01:34:45;6.40;1.00
7784;DHT22;19359;51.402;6.778;2024-02-26T01:37:12;6.40;1.00
7784;DHT22;19359;51.402;6.778;2024-02-26T01:39:39;6.40;1.00
7784;DHT22;19359;51.402;6.778;2024-02-26T01:42:07;6.40;1.00
7784;DHT22;19359;51.402;6.778;2024-02-26T01:44:35;6.40;1.00
7784;DHT22;19359;51.402;6.778;2024-02-26T01:47:04;6.40;1.00
7784;DHT22;19359;51.402;6.778;2024-02-26T01:49:31;6.40;1.00
7784;DHT22;19359;51.402;6.778;2024-02-26T01:51:58;6.40;1.00
7784;DHT22;19359;51.402;6.778;2024-02-26T01:54:25;6.40;1.00
7784;DHT22;19359;51.402;6.778;2024-02-26T01:56:52;6.40;1.00
7784;DHT22;19359;51.402;6.778;2024-02-26T01:59:19;6.40;1.00
7784;DHT22;19359;51.402;6.778;2024-02-26T02:01:52;6.40;1.00
7784;DHT22;19359;51.402;6.778;2024-02-26T02:04:21;6.40;1.00
7784;DHT22;19359;51.402;6.778;2024-02-26T02:06:49;6.50;1.00
7784;DHT22;19359;51.402;6.778;2024-02-26T02:09:17;6.40;1.00
7784;DHT22;19359;51.402;6.778;2024-02-26T02:11:44;6.40;1.00
7784;DHT22;19359;51.402;6.778;2024-02-26T02:14:11;6.40;1.00
7784;DHT22;19359;51.402;6.778;2024-02-26T02:16:38;6.40;1.00
7784;DHT22;19359;51.402;6.778;2024-02-26T02:19:06;6.40;1.00
7784;DHT22;19359;51.402;6.778;2024-02-26T02:21:34;6.40;1.00
7784;DHT22;19359;51.402;6.778;2024-02-26T02:24:01;6.40;1.00
7784;DHT22;19359;51.402;6.778;2024-02-26T02:26:28;6.40;1.00
7784;DHT22;19359;51.402;6.778;2024-02-26T02:28:54;6.40;1.00
7784;DHT22;19359;51.402;6.778;2024-02-26T02:31:21;6.40;1.00
7784;DHT22;19359;51.402;6.778;2024-02-26T02:33:48;6.40;1.00
7784;DHT22;19359;51.402;6.778;2024-02-26T02:36:15;6.40;1.00
7784;DHT22;19359;51.402;6.778;2024-02-26T02:38:50;6.40;1.00
7784;DHT22;19359;51.402;6.778;2024-02-26T02:41:17;6.40;1.00
7784;DHT22;19359;51.402;6.778;2024-02-26T02:43:44;6.40;1.00
7784;DHT22;19359;51.402;6.778;2024-02-26T02:46:11;6.40;1.00
7784;DHT22;19359;51.402;6.778;2024-02-26T02:48:38;6.40;1.00
7784;DHT22;19359;51.402;6.778;2024-02-26T02:51:05;6.40;1.00
7784;DHT22;19359;51.402;6.778;2024-02-26T02:53:32;6.40;1.00
7784;DHT22;19359;51.402;6.778;2024-02-26T02:56:00;6.40;1.00
7784;DHT22;19359;51.402;6.778;2024-02-26T02:58:26;6.30;1.00
7784;DHT22;19359;51.402;6.778;2024-02-26T03:00:53;6.30;1.00
7784;DHT22;19359;51.402;6.778;2024-02-26T03:03:20;6.30;1.00
7784;DHT22;19359;51.402;6.778;2024-02-26T03:05:49;6.30;1.00
7784;DHT22;19359;51.402;6.778;2024-02-26T03:08:16;6.30;1.00
7784;DHT22;19359;51.402;6.778;2024-02-26T03:10:44;6.30;1.00
7784;DHT22;19359;51.402;6.778;2024-02-26T03:13:12;6.20;1.00
7784;DHT22;19359;51.402;6.778;2024-02-26T03:15:39;6.20;1.00
7784;DHT22;19359;51.402;6.778;2024-02-26T03:18:06;6.20;1.00
7784;DHT22;19359;51.402;6.778;2024-02-26T03:20:33;6.10;1.00
7784;DHT22;19359;51.402;6.778;2024-02-26T03:22:59;6.10;1.00
7784;DHT22;19359;51.402;6.778;2024-02-26T03:25:26;6.00;1.00
7784;DHT22;19359;51.402;6.778;2024-02-26T03:27:53;6.00;1.00
7784;DHT22;19359;51.402;6.778;2024-02-26T03:30:21;6.00;1.00
7784;DHT22;19359;51.402;6.778;2024-02-26T03:32:48;5.80;1.00
7784;DHT22;19359;51.402;6.778;2024-02-26T03:35:14;5.80;1.00
7784;DHT22;19359;51.402;6.778;2024-02-26T03:37:41;5.80;1.00
7784;DHT22;19359;51.402;6.778;2024-02-26T03:40:08;5.80;1.00
7784;DHT22;19359;51.402;6.778;2024-02-26T03:42:35;5.80;1.00
7784;DHT22;19359;51.402;6.778;2024-02-26T03:45:02;5.80;1.00
7784;DHT22;19359;51.402;6.778;2024-02-26T03:47:30;5.70;1.00
7784;DHT22;19359;51.402;6.778;2024-02-26T03:49:57;5.70;1.00
7784;DHT22;19359;51.402;6.778;2024-02-26T03:52:24;5.70;1.00
7784;DHT22;19359;51.402;6.778;2024-02-26T03:54:51;5.70;1.00
7784;DHT22;19359;51.402;6.778;2024-02-26T03:57:18;5.60;1.00
7784;DHT22;19359;51.402;6.778;2024-02-26T03:59:44;5.60;1.00
7784;DHT22;19359;51.402;6.778;2024-02-26T04:02:11;5.60;1.00
7784;DHT22;19359;51.402;6.778;2024-02-26T04:04:39;5.60;1.00
7784;DHT22;19359;51.402;6.778;2024-02-26T04:07:06;5.50;1.00
7784;DHT22;19359;51.402;6.778;2024-02-26T04:12:00;5.50;1.00
7784;DHT22;19359;51.402;6.778;2024-02-26T04:14:27;5.50;1.00
7784;DHT22;19359;51.402;6.778;2024-02-26T04:16:54;5.50;1.00
7784;DHT22;19359;51.402;6.778;2024-02-26T04:19:21;5.50;1.00
7784;DHT22;19359;51.402;6.778;2024-02-26T04:21:49;5.50;1.00
7784;DHT22;19359;51.402;6.778;2024-02-26T04:24:16;5.50;1.00
7784;DHT22;19359;51.402;6.778;2024-02-26T04:26:43;5.50;1.00
7784;DHT22;19359;51.402;6.778;2024-02-26T04:29:09;5.50;1.00
7784;DHT22;19359;51.402;6.778;2024-02-26T04:31:37;5.50;1.00
7784;DHT22;19359;51.402;6.778;2024-02-26T04:34:04;5.50;1.00
7784;DHT22;19359;51.402;6.778;2024-02-26T04:36:31;5.40;1.00
7784;DHT22;19359;51.402;6.778;2024-02-26T04:38:59;5.50;1.00
7784;DHT22;19359;51.402;6.778;2024-02-26T04:41:26;5.40;1.00
7784;DHT22;19359;51.402;6.778;2024-02-26T04:43:53;5.40;1.00
7784;DHT22;19359;51.402;6.778;2024-02-26T04:46:19;5.40;1.00
7784;DHT22;19359;51.402;6.778;2024-02-26T04:48:47;5.40;1.00
7784;DHT22;19359;51.402;6.778;2024-02-26T04:51:14;5.40;1.00
7784;DHT22;19359;51.402;6.778;2024-02-26T04:53:40;5.40;1.00
7784;DHT22;19359;51.402;6.778;2024-02-26T04:56:09;5.30;1.00
7784;DHT22;19359;51.402;6.778;2024-02-26T04:58:35;5.30;1.00
7784;DHT22;19359;51.402;6.778;2024-02-26T05:01:02;5.30;1.00
7784;DHT22;19359;51.402;6.778;2024-02-26T05:03:29;5.30;1.00
7784;DHT22;19359;51.402;6.778;2024-02-26T05:05:56;5.30;1.00
7784;DHT22;19359;51.402;6.778;2024-02-26T05:08:23;5.30;1.00
7784;DHT22;19359;51.402;6.778;2024-02-26T05:10:50;5.30;1.00
7784;DHT22;19359;51.402;6.778;2024-02-26T05:13:18;5.20;1.00
7784;DHT22;19359;51.402;6.778;2024-02-26T05:15:45;5.20;1.00
7784;DHT22;19359;51.402;6.778;2024-02-26T05:18:14;5.20;1.00
7784;DHT22;19359;51.402;6.778;2024-02-26T05:20:41;5.20;22.10
7784;DHT22;19359;51.402;6.778;2024-02-26T05:23:08;5.20;26.70
7784;DHT22;19359;51.402;6.778;2024-02-26T05:25:35;5.20;35.90
7784;DHT22;19359;51.402;6.778;2024-02-26T05:28:02;5.20;64.70
7784;DHT22;19359;51.402;6.778;2024-02-26T05:30:30;5.20;99.90
7784;DHT22;19359;51.402;6.778;2024-02-26T05:32:57;5.20;99.90
7784;DHT22;19359;51.402;6.778;2024-02-26T05:35:24;5.20;99.90
7784;DHT22;19359;51.402;6.778;2024-02-26T05:37:51;5.20;99.90
7784;DHT22;19359;51.402;6.778;2024-02-26T05:40:19;5.20;99.90
7784;DHT22;19359;51.402;6.778;2024-02-26T05:42:46;5.10;99.90
7784;DHT22;19359;51.402;6.778;2024-02-26T05:45:14;5.10;99.90
7784;DHT22;19359;51.402;6.778;2024-02-26T05:47:42;5.10;99.90
7784;DHT22;19359;51.402;6.778;2024-02-26T05:50:09;5.10;99.90
7784;DHT22;19359;51.402;6.778;2024-02-26T05:52:36;5.10;99.90
7784;DHT22;19359;51.402;6.778;2024-02-26T05:55:05;5.10;1.00
7784;DHT22;19359;51.402;6.778;2024-02-26T05:57:31;5.10;1.00
7784;DHT22;19359;51.402;6.778;2024-02-26T05:59:58;5.10;1.00
7784;DHT22;19359;51.402;6.778;2024-02-26T06:02:28;5.10;1.00
7784;DHT22;19359;51.402;6.778;2024-02-26T06:04:56;5.10;1.00
7784;DHT22;19359;51.402;6.778;2024-02-26T06:07:23;5.10;1.00
7784;DHT22;19359;51.402;6.778;2024-02-26T06:09:50;5.10;1.00
7784;DHT22;19359;51.402;6.778;2024-02-26T06:12:16;5.10;1.00
7784;DHT22;19359;51.402;6.778;2024-02-26T06:14:43;5.10;1.00
7784;DHT22;19359;51.402;6.778;2024-02-26T06:17:10;5.10;99.90
7784;DHT22;19359;51.402;6.778;2024-02-26T06:19:37;5.10;1.00
7784;DHT22;19359;51.402;6.778;2024-02-26T06:22:05;5.10;1.00
7784;DHT22;19359;51.402;6.778;2024-02-26T06:24:31;5.10;1.00
7784;DHT22;19359;51.402;6.778;2024-02-26T06:26:58;5.10;1.00
7784;DHT22;19359;51.402;6.778;2024-02-26T06:31:52;5.10;1.00
7784;DHT22;19359;51.402;6.778;2024-02-26T06:34:19;5.10;1.00
7784;DHT22;19359;51.402;6.778;2024-02-26T06:36:45;5.10;1.00
7784;DHT22;19359;51.402;6.778;2024-02-26T06:39:13;5.20;1.00
7784;DHT22;19359;51.402;6.778;2024-02-26T06:41:41;5.10;1.00
7784;DHT22;19359;51.402;6.778;2024-02-26T06:44:08;5.10;1.00
7784;DHT22;19359;51.402;6.778;2024-02-26T06:46:35;5.10;1.00
7784;DHT22;19359;51.402;6.778;2024-02-26T06:49:01;5.10;1.00
7784;DHT22;19359;51.402;6.778;2024-02-26T06:51:28;5.10;1.00
7784;DHT22;19359;51.402;6.778;2024-02-26T06:53:55;5.10;1.00
7784;DHT22;19359;51.402;6.778;2024-02-26T06:56:23;5.10;1.00
7784;DHT22;19359;51.402;6.778;2024-02-26T06:58:48;5.10;1.00
7784;DHT22;19359;51.402;6.778;2024-02-26T07:01:15;5.20;1.00
7784;DHT22;19359;51.402;6.778;2024-02-26T07:03:42;5.20;1.00
7784;DHT22;19359;51.402;6.778;2024-02-26T07:06:09;5.10;1.00
7784;DHT22;19359;51.402;6.778;2024-02-26T07:08:37;5.20;1.00
7784;DHT22;19359;51.402;6.778;2024-02-26T07:11:03;5.20;1.00
7784;DHT22;19359;51.402;6.778;2024-02-26T07:13:34;5.20;1.00
7784;DHT22;19359;51.402;6.778;2024-02-26T07:16:01;5.20;1.00
7784;DHT22;19359;51.402;6.778;2024-02-26T07:20:55;5.20;1.00
7784;DHT22;19359;51.402;6.778;2024-02-26T07:23:22;5.30;1.00
7784;DHT22;19359;51.402;6.778;2024-02-26T07:25:47;5.30;1.00
7784;DHT22;19359;51.402;6.778;2024-02-26T07:28:18;5.30;1.00
7784;DHT22;19359;51.402;6.778;2024-02-26T07:30:46;5.30;1.00
7784;DHT22;19359;51.402;6.778;2024-02-26T07:33:13;5.40;1.00
7784;DHT22;19359;51.402;6.778;2024-02-26T07:35:40;5.30;1.00
7784;DHT22;19359;51.402;6.778;2024-02-26T07:38:07;5.40;1.00
7784;DHT22;19359;51.402;6.778;2024-02-26T07:40:34;5.40;1.00
7784;DHT22;19359;51.402;6.778;2024-02-26T07:43:01;5.40;1.00
7784;DHT22;19359;51.402;6.778;2024-02-26T07:45:28;5.30;1.00
7784;DHT22;19359;51.402;6.778;2024-02-26T07:47:56;5.40;1.00
7784;DHT22;19359;51.402;6.778;2024-02-26T07:50:23;5.30;1.00
7784;DHT22;19359;51.402;6.778;2024-02-26T07:52:49;5.30;1.00
7784;DHT22;19359;51.402;6.778;2024-02-26T07:55:16;5.30;52.80
7784;DHT22;19359;51.402;6.778;2024-02-26T07:57:44;5.30;99.90
7784;DHT22;19359;51.402;6.778;2024-02-26T08:00:12;5.40;99.90
7784;DHT22;19359;51.402;6.778;2024-02-26T08:02:42;5.40;99.90
7784;DHT22;19359;51.402;6.778;2024-02-26T08:05:10;5.40;99.90
7784;DHT22;19359;51.402;6.778;2024-02-26T08:07:37;5.40;99.90
7784;DHT22;19359;51.402;6.778;2024-02-26T08:10:04;5.50;99.90
7784;DHT22;19359;51.402;6.778;2024-02-26T08:12:31;5.40;99.90
7784;DHT22;19359;51.402;6.778;2024-02-26T08:14:57;5.40;99.90
7784;DHT22;19359;51.402;6.778;2024-02-26T08:17:24;5.40;99.90
7784;DHT22;19359;51.402;6.778;2024-02-26T08:19:52;5.40;99.90
7784;DHT22;19359;51.402;6.778;2024-02-26T08:22:20;5.40;99.90
7784;DHT22;19359;51.402;6.778;2024-02-26T08:24:47;5.40;1.00
7784;DHT22;19359;51.402;6.778;2024-02-26T08:27:14;5.50;1.00
7784;DHT22;19359;51.402;6.778;2024-02-26T08:29:40;5.50;1.00
7784;DHT22;19359;51.402;6.778;2024-02-26T08:32:07;5.50;1.00
7784;DHT22;19359;51.402;6.778;2024-02-26T08:34:34;5.50;1.00
7784;DHT22;19359;51.402;6.778;2024-02-26T08:37:01;5.50;1.00
7784;DHT22;19359;51.402;6.778;2024-02-26T08:39:29;5.50;1.00
7784;DHT22;19359;51.402;6.778;2024-02-26T08:41:55;5.50;1.00
7784;DHT22;19359;51.402;6.778;2024-02-26T08:44:22;5.50;1.00
7784;DHT22;19359;51.402;6.778;2024-02-26T08:46:49;5.50;99.90
7784;DHT22;19359;51.402;6.778;2024-02-26T08:49:16;5.50;99.90
7784;DHT22;19359;51.402;6.778;2024-02-26T08:51:43;5.60;99.90
7784;DHT22;19359;51.402;6.778;2024-02-26T08:54:09;5.60;99.90
7784;DHT22;19359;51.402;6.778;2024-02-26T08:56:37;5.60;99.90
7784;DHT22;19359;51.402;6.778;2024-02-26T08:59:04;5.70;99.90
7784;DHT22;19359;51.402;6.778;2024-02-26T09:01:31;5.70;99.90
7784;DHT22;19359;51.402;6.778;2024-02-26T09:03:58;5.70;99.90
7784;DHT22;19359;51.402;6.778;2024-02-26T09:06:25;5.70;99.90
7784;DHT22;19359;51.402;6.778;2024-02-26T09:08:51;5.80;99.90
7784;DHT22;19359;51.402;6.778;2024-02-26T09:11:18;5.80;99.90
7784;DHT22;19359;51.402;6.778;2024-02-26T09:13:46;5.80;99.90
7784;DHT22;19359;51.402;6.778;2024-02-26T09:16:13;5.70;99.90
7784;DHT22;19359;51.402;6.778;2024-02-26T09:18:40;5.80;99.90
7784;DHT22;19359;51.402;6.778;2024-02-26T09:21:06;5.70;99.90
7784;DHT22;19359;51.402;6.778;2024-02-26T09:23:33;5.70;69.30
7784;DHT22;19359;51.402;6.778;2024-02-26T09:26:00;5.70;29.00
7784;DHT22;19359;51.402;6.778;2024-02-26T09:28:27;5.70;98.90
7784;DHT22;19359;51.402;6.778;2024-02-26T09:30:58;5.70;99.90
7784;DHT22;19359;51.402;6.778;2024-02-26T09:33:25;5.80;99.90
7784;DHT22;19359;51.402;6.778;2024-02-26T09:35:51;5.70;99.90
7784;DHT22;19359;51.402;6.778;2024-02-26T09:38:18;5.70;99.90
7784;DHT22;19359;51.402;6.778;2024-02-26T09:40:45;5.80;99.90
7784;DHT22;19359;51.402;6.778;2024-02-26T09:43:14;5.70;99.90
7784;DHT22;19359;51.402;6.778;2024-02-26T09:45:42;5.80;99.90
7784;DHT22;19359;51.402;6.778;2024-02-26T09:48:10;5.70;99.90
7784;DHT22;19359;51.402;6.778;2024-02-26T09:50:39;5.70;99.90
7784;DHT22;19359;51.402;6.778;2024-02-26T09:53:08;5.70;99.90
7784;DHT22;19359;51.402;6.778;2024-02-26T09:55:36;5.70;99.90
7784;DHT22;19359;51.402;6.778;2024-02-26T09:58:05;5.80;99.90
7784;DHT22;19359;51.402;6.778;2024-02-26T10:00:37;5.70;99.90
7784;DHT22;19359;51.402;6.778;2024-02-26T10:03:05;5.80;99.90
7784;DHT22;19359;51.402;6.778;2024-02-26T10:05:34;5.80;99.90
7784;DHT22;19359;51.402;6.778;2024-02-26T10:08:02;5.80;99.90
7784;DHT22;19359;51.402;6.778;2024-02-26T10:10:29;5.80;99.90
7784;DHT22;19359;51.402;6.778;2024-02-26T10:12:57;5.80;99.90
7784;DHT22;19359;51.402;6.778;2024-02-26T10:15:24;5.90;99.90
7784;DHT22;19359;51.402;6.778;2024-02-26T10:17:51;5.90;99.90
7784;DHT22;19359;51.402;6.778;2024-02-26T10:20:18;5.90;99.90
7784;DHT22;19359;51.402;6.778;2024-02-26T10:22:48;5.90;99.90
7784;DHT22;19359;51.402;6.778;2024-02-26T10:25:15;6.00;99.90
7784;DHT22;19359;51.402;6.778;2024-02-26T10:27:42;6.10;99.90
7784;DHT22;19359;51.402;6.778;2024-02-26T10:30:19;6.10;99.90
7784;DHT22;19359;51.402;6.778;2024-02-26T10:32:47;6.10;99.90
7784;DHT22;19359;51.402;6.778;2024-02-26T10:35:14;6.20;99.90
7784;DHT22;19359;51.402;6.778;2024-02-26T10:37:41;6.10;99.90
7784;DHT22;19359;51.402;6.778;2024-02-26T10:40:11;6.20;99.90
7784;DHT22;19359;51.402;6.778;2024-02-26T10:42:38;6.10;21.90
7784;DHT22;19359;51.402;6.778;2024-02-26T10:45:06;6.10;1.00
7784;DHT22;19359;51.402;6.778;2024-02-26T10:47:34;6.20;1.00
7784;DHT22;19359;51.402;6.778;2024-02-26T10:50:02;6.20;1.00
7784;DHT22;19359;51.402;6.778;2024-02-26T10:52:31;6.10;1.00
7784;DHT22;19359;51.402;6.778;2024-02-26T10:55:01;6.20;1.00
7784;DHT22;19359;51.402;6.778;2024-02-26T10:57:33;6.20;1.00
7784;DHT22;19359;51.402;6.778;2024-02-26T11:00:00;6.30;1.00
7784;DHT22;19359;51.402;6.778;2024-02-26T11:02:30;6.30;1.00
7784;DHT22;19359;51.402;6.778;2024-02-26T11:04:57;6.30;1.00
7784;DHT22;19359;51.402;6.778;2024-02-26T11:07:25;6.30;1.00
7784;DHT22;19359;51.402;6.778;2024-02-26T11:09:53;6.30;1.00
7784;DHT22;19359;51.402;6.778;2024-02-26T11:12:22;6.40;1.00
7784;DHT22;19359;51.402;6.778;2024-02-26T11:14:50;6.40;1.00
7784;DHT22;19359;51.402;6.778;2024-02-26T11:17:21;6.50;1.00
7784;DHT22;19359;51.402;6.778;2024-02-26T11:19:49;6.60;1.00
7784;DHT22;19359;51.402;6.778;2024-02-26T11:22:16;6.60;1.00
7784;DHT22;19359;51.402;6.778;2024-02-26T11:24:44;6.70;1.00
7784;DHT22;19359;51.402;6.778;2024-02-26T11:27:11;6.70;1.00
7784;DHT22;19359;51.402;6.778;2024-02-26T11:29:42;6.60;1.00
7784;DHT22;19359;51.402;6.778;2024-02-26T11:32:11;6.70;1.00
7784;DHT22;19359;51.402;6.778;2024-02-26T11:34:38;6.70;1.00
7784;DHT22;19359;51.402;6.778;2024-02-26T11:37:10;6.70;1.00
7784;DHT22;19359;51.402;6.778;2024-02-26T11:39:37;6.80;1.00
7784;DHT22;19359;51.402;6.778;2024-02-26T11:42:08;6.90;1.00
7784;DHT22;19359;51.402;6.778;2024-02-26T11:44:36;6.90;1.00
7784;DHT22;19359;51.402;6.778;2024-02-26T11:47:11;7.00;1.00
7784;DHT22;19359;51.402;6.778;2024-02-26T11:49:39;7.10;1.00
7784;DHT22;19359;51.402;6.778;2024-02-26T11:52:08;7.00;99.90
7784;DHT22;19359;51.402;6.778;2024-02-26T11:54:53;7.10;1.00
7784;DHT22;19359;51.402;6.778;2024-02-26T11:57:22;7.20;1.00
7784;DHT22;19359;51.402;6.778;2024-02-26T11:59:47;7.30;1.00
7784;DHT22;19359;51.402;6.778;2024-02-26T12:02:43;7.30;99.90
7784;DHT22;19359;51.402;6.778;2024-02-26T12:05:12;7.30;99.90
7784;DHT22;19359;51.402;6.778;2024-02-26T12:07:46;7.20;99.90
7784;DHT22;19359;51.402;6.778;2024-02-26T12:10:16;7.20;99.90
7784;DHT22;19359;51.402;6.778;2024-02-26T12:12:43;7.20;99.90
7784;DHT22;19359;51.402;6.778;2024-02-26T12:15:09;7.20;99.90
7784;DHT22;19359;51.402;6.778;2024-02-26T12:17:38;7.20;99.90
7784;DHT22;19359;51.402;6.778;2024-02-26T12:20:10;7.20;93.10
7784;DHT22;19359;51.402;6.778;2024-02-26T12:22:37;7.30;99.90
7784;DHT22;19359;51.402;6.778;2024-02-26T12:25:07;7.30;99.90
7784;DHT22;19359;51.402;6.778;2024-02-26T12:27:35;7.30;99.90
7784;DHT22;19359;51.402;6.778;2024-02-26T12:30:02;7.30;99.90
7784;DHT22;19359;51.402;6.778;2024-02-26T12:32:29;7.20;63.50
7784;DHT22;19359;51.402;6.778;2024-02-26T12:34:56;7.30;91.10
7784;DHT22;19359;51.402;6.778;2024-02-26T12:37:25;7.20;32.80
7784;DHT22;19359;51.402;6.778;2024-02-26T12:39:52;7.30;99.90
7784;DHT22;19359;51.402;6.778;2024-02-26T12:42:18;7.30;49.70
7784;DHT22;19359;51.402;6.778;2024-02-26T12:44:45;7.20;1.00
7784;DHT22;19359;51.402;6.778;2024-02-26T12:47:12;7.20;1.00
7784;DHT22;19359;51.402;6.778;2024-02-26T12:49:42;7.20;1.00
7784;DHT22;19359;51.402;6.778;2024-02-26T12:52:10;7.20;1.00
7784;DHT22;19359;51.402;6.778;2024-02-26T12:54:38;7.20;1.00
7784;DHT22;19359;51.402;6.778;2024-02-26T12:57:06;7.30;1.00
7784;DHT22;19359;51.402;6.778;2024-02-26T12:59:35;7.30;1.00
7784;DHT22;19359;51.402;6.778;2024-02-26T13:02:03;7.30;1.00
7784;DHT22;19359;51.402;6.778;2024-02-26T13:04:31;7.30;1.00
7784;DHT22;19359;51.402;6.778;2024-02-26T13:06:57;7.30;1.00
7784;DHT22;19359;51.402;6.778;2024-02-26T13:09:28;7.30;1.00
7784;DHT22;19359;51.402;6.778;2024-02-26T13:11:56;7.20;1.00
7784;DHT22;19359;51.402;6.778;2024-02-26T13:14:23;7.20;1.00
7784;DHT22;19359;51.402;6.778;2024-02-26T13:16:55;7.20;1.00
7784;DHT22;19359;51.402;6.778;2024-02-26T13:19:22;7.20;1.00
7784;DHT22;19359;51.402;6.778;2024-02-26T13:21:48;7.20;1.00
7784;DHT22;19359;51.402;6.778;2024-02-26T13:24:15;7.30;1.00
7784;DHT22;19359;51.402;6.778;2024-02-26T13:26:43;7.30;1.00
7784;DHT22;19359;51.402;6.778;2024-02-26T13:29:18;7.30;1.00
7784;DHT22;19359;51.402;6.778;2024-02-26T13:31:45;7.30;1.00
7784;DHT22;19359;51.402;6.778;2024-02-26T13:34:22;7.30;1.00
7784;DHT22;19359;51.402;6.778;2024-02-26T13:36:49;7.40;1.00
7784;DHT22;19359;51.402;6.778;2024-02-26T13:39:21;7.40;1.00
7784;DHT22;19359;51.402;6.778;2024-02-26T13:41:49;7.40;1.00
7784;DHT22;19359;51.402;6.778;2024-02-26T13:44:16;7.40;1.00
7784;DHT22;19359;51.402;6.778;2024-02-26T13:46:44;7.40;1.00
7784;DHT22;19359;51.402;6.778;2024-02-26T13:49:10;7.40;1.00
7784;DHT22;19359;51.402;6.778;2024-02-26T13:51:37;7.40;1.00
7784;DHT22;19359;51.402;6.778;2024-02-26T13:54:04;7.50;1.00
7784;DHT22;19359;51.402;6.778;2024-02-26T13:56:31;7.40;1.00
7784;DHT22;19359;51.402;6.778;2024-02-26T13:58:58;7.50;1.00
7784;DHT22;19359;51.402;6.778;2024-02-26T14:01:25;7.50;1.00
7784;DHT22;19359;51.402;6.778;2024-02-26T14:03:53;7.50;1.00
7784;DHT22;19359;51.402;6.778;2024-02-26T14:06:22;7.50;1.00
7784;DHT22;19359;51.402;6.778;2024-02-26T14:08:49;7.50;1.00
7784;DHT22;19359;51.402;6.778;2024-02-26T14:11:16;7.50;1.00
7784;DHT22;19359;51.402;6.778;2024-02-26T14:13:43;7.60;1.00
7784;DHT22;19359;51.402;6.778;2024-02-26T14:16:12;7.50;1.00
7784;DHT22;19359;51.402;6.778;2024-02-26T14:18:39;7.50;1.00
7784;DHT22;19359;51.402;6.778;2024-02-26T14:21:07;7.50;1.00
7784;DHT22;19359;51.402;6.778;2024-02-26T14:23:34;7.50;1.00
7784;DHT22;19359;51.402;6.778;2024-02-26T14:26:01;7.40;1.00
7784;DHT22;19359;51.402;6.778;2024-02-26T14:28:29;7.40;1.00
7784;DHT22;19359;51.402;6.778;2024-02-26T14:30:57;7.40;1.00
7784;DHT22;19359;51.402;6.778;2024-02-26T14:33:24;7.40;1.00
7784;DHT22;19359;51.402;6.778;2024-02-26T14:35:50;7.40;1.00
7784;DHT22;19359;51.402;6.778;2024-02-26T14:38:18;7.40;1.00
7784;DHT22;19359;51.402;6.778;2024-02-26T14:40:45;7.40;1.00
7784;DHT22;19359;51.402;6.778;2024-02-26T14:43:12;7.30;1.00
7784;DHT22;19359;51.402;6.778;2024-02-26T14:45:39;7.30;1.00
7784;DHT22;19359;51.402;6.778;2024-02-26T14:48:06;7.30;1.00
7784;DHT22;19359;51.402;6.778;2024-02-26T14:50:33;7.30;1.00
7784;DHT22;19359;51.402;6.778;2024-02-26T14:53:00;7.30;1.00
7784;DHT22;19359;51.402;6.778;2024-02-26T14:55:29;7.30;1.00
7784;DHT22;19359;51.402;6.778;2024-02-26T14:57:56;7.30;1.00
7784;DHT22;19359;51.402;6.778;2024-02-26T15:00:22;7.30;1.00
7784;DHT22;19359;51.402;6.778;2024-02-26T15:02:49;7.30;1.00
7784;DHT22;19359;51.402;6.778;2024-02-26T15:05:17;7.30;1.00
7784;DHT22;19359;51.402;6.778;2024-02-26T15:07:45;7.30;1.00
7784;DHT22;19359;51.402;6.778;2024-02-26T15:10:12;7.30;1.00
7784;DHT22;19359;51.402;6.778;2024-02-26T15:12:40;7.30;1.00
7784;DHT22;19359;51.402;6.778;2024-02-26T15:15:08;7.30;1.00
7784;DHT22;19359;51.402;6.778;2024-02-26T15:17:34;7.30;1.00
7784;DHT22;19359;51.402;6.778;2024-02-26T15:20:01;7.30;1.00
7784;DHT22;19359;51.402;6.778;2024-02-26T15:22:28;7.30;1.00
7784;DHT22;19359;51.402;6.778;2024-02-26T15:24:55;7.20;1.00
7784;DHT22;19359;51.402;6.778;2024-02-26T15:27:22;7.20;1.00
7784;DHT22;19359;51.402;6.778;2024-02-26T15:29:50;7.20;1.00
7784;DHT22;19359;51.402;6.778;2024-02-26T15:32:23;7.20;1.00
7784;DHT22;19359;51.402;6.778;2024-02-26T15:34:52;7.20;1.00
7784;DHT22;19359;51.402;6.778;2024-02-26T15:37:18;7.20;1.00
7784;DHT22;19359;51.402;6.778;2024-02-26T15:39:45;7.20;1.00
7784;DHT22;19359;51.402;6.778;2024-02-26T15:42:12;7.20;1.00
7784;DHT22;19359;51.402;6.778;2024-02-26T15:44:39;7.20;1.00
7784;DHT22;19359;51.402;6.778;2024-02-26T15:47:07;7.20;1.00
7784;DHT22;19359;51.402;6.778;2024-02-26T15:49:34;7.20;1.00
7784;DHT22;19359;51.402;6.778;2024-02-26T15:52:01;7.20;1.00
7784;DHT22;19359;51.402;6.778;2024-02-26T15:54:29;7.10;1.00
7784;DHT22;19359;51.402;6.778;2024-02-26T15:56:56;7.10;1.00
7784;DHT22;19359;51.402;6.778;2024-02-26T15:59:23;7.20;1.00
7784;DHT22;19359;51.402;6.778;2024-02-26T16:01:50;7.10;1.00
7784;DHT22;19359;51.402;6.778;2024-02-26T16:04:19;7.10;1.00
7784;DHT22;19359;51.402;6.778;2024-02-26T16:06:49;7.00;1.00
7784;DHT22;19359;51.402;6.778;2024-02-26T16:09:17;7.10;1.00
7784;DHT22;19359;51.402;6.778;2024-02-26T16:11:44;7.10;1.00
7784;DHT22;19359;51.402;6.778;2024-02-26T16:14:19;7.10;1.00
7784;DHT22;19359;51.402;6.778;2024-02-26T16:16:56;7.00;1.00
7784;DHT22;19359;51.402;6.778;2024-02-26T16:19:26;7.00;1.00
7784;DHT22;19359;51.402;6.778;2024-02-26T16:21:53;7.00;1.00
7784;DHT22;19359;51.402;6.778;2024-02-26T16:24:19;7.00;1.00
7784;DHT22;19359;51.402;6.778;2024-02-26T16:26:46;6.90;1.00